sensor_id;sensor_type;location;lat;lon;timestamp;P1;durP1;ratioP1;P2;durP2;ratioP2
69188;SDS011;56302;52.322;5.926;2023-05-08T00:01:17;24.37;;;15.30;;
69188;SDS011;56302;52.322;5.926;2023-05-08T00:03:42;22.98;;;16.00;;
69188;SDS011;56302;52.322;5.926;2023-05-08T00:06:08;21.43;;;15.23;;
69188;SDS011;56302;52.322;5.926;2023-05-08T00:08:33;22.43;;;15.83;;
69188;SDS011;56302;52.322;5.926;2023-05-08T00:10:59;25.00;;;16.30;;
69188;SDS011;56302;52.322;5.926;2023-05-08T00:13:24;22.30;;;15.10;;
69188;SDS011;56302;52.322;5.926;2023-05-08T00:15:50;22.20;;;15.63;;
69188;SDS011;56302;52.322;5.926;2023-05-08T00:18:15;22.48;;;15.07;;
69188;SDS011;56302;52.322;5.926;2023-05-08T00:20:41;23.23;;;16.17;;
69188;SDS011;56302;52.322;5.926;2023-05-08T00:23:06;22.17;;;15.93;;
69188;SDS011;56302;52.322;5.926;2023-05-08T00:25:32;20.73;;;14.98;;
69188;SDS011;56302;52.322;5.926;2023-05-08T00:27:58;26.60;;;16.77;;
69188;SDS011;56302;52.322;5.926;2023-05-08T00:30:24;23.92;;;17.15;;
69188;SDS011;56302;52.322;5.926;2023-05-08T00:32:51;24.73;;;16.65;;
69188;SDS011;56302;52.322;5.926;2023-05-08T00:35:16;23.27;;;16.90;;
69188;SDS011;56302;52.322;5.926;2023-05-08T00:37:42;20.95;;;15.90;;
69188;SDS011;56302;52.322;5.926;2023-05-08T00:40:08;26.80;;;16.93;;
69188;SDS011;56302;52.322;5.926;2023-05-08T00:42:35;21.75;;;16.48;;
69188;SDS011;56302;52.322;5.926;2023-05-08T00:45:01;21.73;;;15.63;;
69188;SDS011;56302;52.322;5.926;2023-05-08T00:47:27;21.38;;;15.95;;
69188;SDS011;56302;52.322;5.926;2023-05-08T00:49:53;21.95;;;16.35;;
69188;SDS011;56302;52.322;5.926;2023-05-08T00:52:18;21.43;;;15.87;;
69188;SDS011;56302;52.322;5.926;2023-05-08T00:54:44;22.05;;;16.45;;
69188;SDS011;56302;52.322;5.926;2023-05-08T00:57:11;23.33;;;17.02;;
69188;SDS011;56302;52.322;5.926;2023-05-08T00:59:38;20.97;;;15.97;;
69188;SDS011;56302;52.322;5.926;2023-05-08T01:02:05;22.30;;;14.93;;
69188;SDS011;56302;52.322;5.926;2023-05-08T01:04:31;23.15;;;16.45;;
69188;SDS011;56302;52.322;5.926;2023-05-08T01:06:59;22.83;;;15.70;;
69188;SDS011;56302;52.322;5.926;2023-05-08T01:09:25;20.58;;;15.50;;
69188;SDS011;56302;52.322;5.926;2023-05-08T01:11:54;22.23;;;15.57;;
69188;SDS011;56302;52.322;5.926;2023-05-08T01:28:03;18.58;;;14.13;;
69188;SDS011;56302;52.322;5.926;2023-05-08T01:30:49;19.40;;;14.13;;
69188;SDS011;56302;52.322;5.926;2023-05-08T01:33:58;21.83;;;13.67;;
69188;SDS011;56302;52.322;5.926;2023-05-08T01:39:30;20.50;;;14.85;;
69188;SDS011;56302;52.322;5.926;2023-05-08T01:41:59;20.48;;;13.70;;
69188;SDS011;56302;52.322;5.926;2023-05-08T01:44:32;19.38;;;14.02;;
69188;SDS011;56302;52.322;5.926;2023-05-08T01:47:03;20.27;;;13.93;;
69188;SDS011;56302;52.322;5.926;2023-05-08T01:49:41;17.85;;;13.57;;
69188;SDS011;56302;52.322;5.926;2023-05-08T01:52:19;18.60;;;14.20;;
69188;SDS011;56302;52.322;5.926;2023-05-08T01:54:56;19.65;;;13.80;;
69188;SDS011;56302;52.322;5.926;2023-05-08T01:57:26;19.98;;;14.68;;
69188;SDS011;56302;52.322;5.926;2023-05-08T01:59:54;19.50;;;13.90;;
69188;SDS011;56302;52.322;5.926;2023-05-08T02:02:21;20.17;;;14.68;;
69188;SDS011;56302;52.322;5.926;2023-05-08T02:04:48;20.73;;;14.48;;
69188;SDS011;56302;52.322;5.926;2023-05-08T02:07:14;24.42;;;14.20;;
69188;SDS011;56302;52.322;5.926;2023-05-08T02:09:41;21.48;;;16.45;;
69188;SDS011;56302;52.322;5.926;2023-05-08T02:12:08;19.87;;;14.13;;
69188;SDS011;56302;52.322;5.926;2023-05-08T02:14:35;19.65;;;14.45;;
69188;SDS011;56302;52.322;5.926;2023-05-08T02:17:02;20.50;;;14.40;;
69188;SDS011;56302;52.322;5.926;2023-05-08T02:19:30;17.98;;;14.20;;
69188;SDS011;56302;52.322;5.926;2023-05-08T02:21:57;19.08;;;13.68;;
69188;SDS011;56302;52.322;5.926;2023-05-08T02:24:24;20.80;;;14.47;;
69188;SDS011;56302;52.322;5.926;2023-05-08T02:26:50;22.90;;;15.05;;
69188;SDS011;56302;52.322;5.926;2023-05-08T02:29:17;20.52;;;15.38;;
69188;SDS011;56302;52.322;5.926;2023-05-08T02:31:45;20.42;;;14.30;;
69188;SDS011;56302;52.322;5.926;2023-05-08T02:34:12;19.27;;;13.40;;
69188;SDS011;56302;52.322;5.926;2023-05-08T02:36:38;19.43;;;12.67;;
69188;SDS011;56302;52.322;5.926;2023-05-08T02:39:04;20.05;;;13.05;;
69188;SDS011;56302;52.322;5.926;2023-05-08T02:41:32;22.48;;;15.70;;
69188;SDS011;56302;52.322;5.926;2023-05-08T02:43:59;21.38;;;14.85;;
69188;SDS011;56302;52.322;5.926;2023-05-08T02:46:26;23.27;;;16.57;;
69188;SDS011;56302;52.322;5.926;2023-05-08T02:48:55;23.42;;;17.02;;
69188;SDS011;56302;52.322;5.926;2023-05-08T02:51:28;24.55;;;16.90;;
69188;SDS011;56302;52.322;5.926;2023-05-08T02:54:16;23.92;;;17.10;;
69188;SDS011;56302;52.322;5.926;2023-05-08T02:59:35;25.75;;;18.70;;
69188;SDS011;56302;52.322;5.926;2023-05-08T03:04:30;29.57;;;18.07;;
69188;SDS011;56302;52.322;5.926;2023-05-08T03:07:00;25.65;;;17.65;;
69188;SDS011;56302;52.322;5.926;2023-05-08T03:09:27;26.85;;;18.30;;
69188;SDS011;56302;52.322;5.926;2023-05-08T03:12:03;26.15;;;17.73;;
69188;SDS011;56302;52.322;5.926;2023-05-08T03:14:34;25.15;;;16.95;;
69188;SDS011;56302;52.322;5.926;2023-05-08T03:17:05;22.67;;;16.23;;
69188;SDS011;56302;52.322;5.926;2023-05-08T03:19:36;24.70;;;17.13;;
69188;SDS011;56302;52.322;5.926;2023-05-08T03:22:03;26.42;;;17.83;;
69188;SDS011;56302;52.322;5.926;2023-05-08T03:24:32;31.13;;;17.98;;
69188;SDS011;56302;52.322;5.926;2023-05-08T03:27:00;27.10;;;18.83;;
69188;SDS011;56302;52.322;5.926;2023-05-08T03:29:27;24.77;;;17.70;;
69188;SDS011;56302;52.322;5.926;2023-05-08T03:31:54;26.48;;;18.98;;
69188;SDS011;56302;52.322;5.926;2023-05-08T03:34:22;25.95;;;18.27;;
69188;SDS011;56302;52.322;5.926;2023-05-08T03:36:49;25.98;;;17.95;;
69188;SDS011;56302;52.322;5.926;2023-05-08T03:39:15;24.43;;;17.23;;
69188;SDS011;56302;52.322;5.926;2023-05-08T03:41:41;23.33;;;16.23;;
69188;SDS011;56302;52.322;5.926;2023-05-08T03:44:07;22.38;;;15.50;;
69188;SDS011;56302;52.322;5.926;2023-05-08T03:46:33;21.92;;;16.20;;
69188;SDS011;56302;52.322;5.926;2023-05-08T03:49:02;24.65;;;15.45;;
69188;SDS011;56302;52.322;5.926;2023-05-08T03:51:28;24.20;;;16.52;;
69188;SDS011;56302;52.322;5.926;2023-05-08T03:53:55;22.67;;;16.08;;
69188;SDS011;56302;52.322;5.926;2023-05-08T03:56:21;27.97;;;17.10;;
69188;SDS011;56302;52.322;5.926;2023-05-08T03:58:51;24.15;;;17.38;;
69188;SDS011;56302;52.322;5.926;2023-05-08T04:01:38;26.87;;;17.67;;
69188;SDS011;56302;52.322;5.926;2023-05-08T04:06:43;26.95;;;17.17;;
69188;SDS011;56302;52.322;5.926;2023-05-08T04:09:18;25.48;;;17.27;;
69188;SDS011;56302;52.322;5.926;2023-05-08T04:12:02;27.65;;;16.52;;
69188;SDS011;56302;52.322;5.926;2023-05-08T04:14:42;26.67;;;16.83;;
69188;SDS011;56302;52.322;5.926;2023-05-08T04:17:13;24.05;;;15.98;;
69188;SDS011;56302;52.322;5.926;2023-05-08T04:19:43;26.27;;;16.90;;
69188;SDS011;56302;52.322;5.926;2023-05-08T04:22:10;24.70;;;16.50;;
69188;SDS011;56302;52.322;5.926;2023-05-08T04:24:42;23.73;;;16.88;;
69188;SDS011;56302;52.322;5.926;2023-05-08T04:27:10;23.40;;;16.27;;
69188;SDS011;56302;52.322;5.926;2023-05-08T04:29:37;25.20;;;16.58;;
69188;SDS011;56302;52.322;5.926;2023-05-08T04:32:05;27.23;;;16.83;;
69188;SDS011;56302;52.322;5.926;2023-05-08T04:34:32;22.30;;;15.70;;
69188;SDS011;56302;52.322;5.926;2023-05-08T04:36:59;23.35;;;16.50;;
69188;SDS011;56302;52.322;5.926;2023-05-08T04:39:24;22.17;;;15.13;;
69188;SDS011;56302;52.322;5.926;2023-05-08T04:41:50;24.40;;;17.03;;
69188;SDS011;56302;52.322;5.926;2023-05-08T04:44:16;22.05;;;15.00;;
69188;SDS011;56302;52.322;5.926;2023-05-08T04:46:42;24.88;;;16.05;;
69188;SDS011;56302;52.322;5.926;2023-05-08T04:49:07;23.47;;;15.93;;
69188;SDS011;56302;52.322;5.926;2023-05-08T04:51:33;26.07;;;18.13;;
69188;SDS011;56302;52.322;5.926;2023-05-08T04:53:58;25.50;;;17.40;;
69188;SDS011;56302;52.322;5.926;2023-05-08T04:56:24;24.17;;;17.37;;
69188;SDS011;56302;52.322;5.926;2023-05-08T04:58:50;24.45;;;16.80;;
69188;SDS011;56302;52.322;5.926;2023-05-08T05:01:16;26.87;;;18.90;;
69188;SDS011;56302;52.322;5.926;2023-05-08T05:03:41;26.43;;;18.20;;
69188;SDS011;56302;52.322;5.926;2023-05-08T05:06:07;30.55;;;18.20;;
69188;SDS011;56302;52.322;5.926;2023-05-08T05:08:32;24.87;;;17.70;;
69188;SDS011;56302;52.322;5.926;2023-05-08T05:10:58;26.57;;;17.37;;
69188;SDS011;56302;52.322;5.926;2023-05-08T05:13:23;29.98;;;18.40;;
69188;SDS011;56302;52.322;5.926;2023-05-08T05:15:49;28.43;;;18.40;;
69188;SDS011;56302;52.322;5.926;2023-05-08T05:18:18;27.45;;;17.92;;
69188;SDS011;56302;52.322;5.926;2023-05-08T05:20:44;29.35;;;19.58;;
69188;SDS011;56302;52.322;5.926;2023-05-08T05:23:10;33.40;;;19.23;;
69188;SDS011;56302;52.322;5.926;2023-05-08T05:25:35;27.33;;;18.27;;
69188;SDS011;56302;52.322;5.926;2023-05-08T05:28:01;29.03;;;19.40;;
69188;SDS011;56302;52.322;5.926;2023-05-08T05:30:27;27.10;;;17.92;;
69188;SDS011;56302;52.322;5.926;2023-05-08T05:32:52;27.38;;;18.60;;
69188;SDS011;56302;52.322;5.926;2023-05-08T05:35:18;29.07;;;18.13;;
69188;SDS011;56302;52.322;5.926;2023-05-08T05:37:44;28.88;;;19.65;;
69188;SDS011;56302;52.322;5.926;2023-05-08T05:40:10;34.03;;;19.07;;
69188;SDS011;56302;52.322;5.926;2023-05-08T05:42:37;30.00;;;19.85;;
69188;SDS011;56302;52.322;5.926;2023-05-08T05:45:03;27.38;;;17.95;;
69188;SDS011;56302;52.322;5.926;2023-05-08T05:47:29;29.25;;;18.33;;
69188;SDS011;56302;52.322;5.926;2023-05-08T05:49:54;27.40;;;17.73;;
69188;SDS011;56302;52.322;5.926;2023-05-08T05:52:20;26.13;;;18.35;;
69188;SDS011;56302;52.322;5.926;2023-05-08T05:54:46;27.30;;;18.20;;
69188;SDS011;56302;52.322;5.926;2023-05-08T05:57:12;26.33;;;18.77;;
69188;SDS011;56302;52.322;5.926;2023-05-08T05:59:38;29.85;;;18.67;;
69188;SDS011;56302;52.322;5.926;2023-05-08T06:02:04;26.88;;;18.48;;
69188;SDS011;56302;52.322;5.926;2023-05-08T06:04:31;27.65;;;17.92;;
69188;SDS011;56302;52.322;5.926;2023-05-08T06:06:57;27.27;;;17.50;;
69188;SDS011;56302;52.322;5.926;2023-05-08T06:09:22;25.80;;;18.33;;
69188;SDS011;56302;52.322;5.926;2023-05-08T06:11:48;28.73;;;17.55;;
69188;SDS011;56302;52.322;5.926;2023-05-08T06:14:13;25.07;;;18.13;;
69188;SDS011;56302;52.322;5.926;2023-05-08T06:16:39;25.40;;;17.90;;
69188;SDS011;56302;52.322;5.926;2023-05-08T06:19:04;25.88;;;18.23;;
69188;SDS011;56302;52.322;5.926;2023-05-08T06:21:30;25.43;;;17.07;;
69188;SDS011;56302;52.322;5.926;2023-05-08T06:23:55;22.13;;;16.13;;
69188;SDS011;56302;52.322;5.926;2023-05-08T06:26:21;24.23;;;17.98;;
69188;SDS011;56302;52.322;5.926;2023-05-08T06:28:47;23.30;;;16.13;;
69188;SDS011;56302;52.322;5.926;2023-05-08T06:31:12;22.83;;;16.67;;
69188;SDS011;56302;52.322;5.926;2023-05-08T06:33:38;23.07;;;17.13;;
69188;SDS011;56302;52.322;5.926;2023-05-08T06:36:04;22.43;;;16.60;;
69188;SDS011;56302;52.322;5.926;2023-05-08T06:38:30;23.05;;;16.05;;
69188;SDS011;56302;52.322;5.926;2023-05-08T06:40:55;22.88;;;17.23;;
69188;SDS011;56302;52.322;5.926;2023-05-08T06:43:21;22.33;;;15.60;;
69188;SDS011;56302;52.322;5.926;2023-05-08T06:45:46;21.77;;;16.00;;
69188;SDS011;56302;52.322;5.926;2023-05-08T06:48:12;24.00;;;16.67;;
69188;SDS011;56302;52.322;5.926;2023-05-08T06:50:38;21.70;;;16.27;;
69188;SDS011;56302;52.322;5.926;2023-05-08T06:53:04;21.23;;;16.10;;
69188;SDS011;56302;52.322;5.926;2023-05-08T06:55:31;25.30;;;16.73;;
69188;SDS011;56302;52.322;5.926;2023-05-08T06:57:57;23.88;;;17.02;;
69188;SDS011;56302;52.322;5.926;2023-05-08T07:00:22;23.38;;;17.23;;
69188;SDS011;56302;52.322;5.926;2023-05-08T07:02:48;24.63;;;17.33;;
69188;SDS011;56302;52.322;5.926;2023-05-08T07:05:13;25.10;;;17.48;;
69188;SDS011;56302;52.322;5.926;2023-05-08T07:07:39;22.65;;;15.80;;
69188;SDS011;56302;52.322;5.926;2023-05-08T07:10:06;22.90;;;16.98;;
69188;SDS011;56302;52.322;5.926;2023-05-08T07:12:32;23.07;;;17.70;;
69188;SDS011;56302;52.322;5.926;2023-05-08T07:14:57;24.10;;;17.48;;
69188;SDS011;56302;52.322;5.926;2023-05-08T07:17:23;22.53;;;17.30;;
69188;SDS011;56302;52.322;5.926;2023-05-08T07:19:49;23.33;;;16.93;;
69188;SDS011;56302;52.322;5.926;2023-05-08T07:22:15;24.08;;;16.77;;
69188;SDS011;56302;52.322;5.926;2023-05-08T07:24:41;23.50;;;16.30;;
69188;SDS011;56302;52.322;5.926;2023-05-08T07:27:06;26.17;;;17.50;;
69188;SDS011;56302;52.322;5.926;2023-05-08T07:29:32;22.35;;;16.17;;
69188;SDS011;56302;52.322;5.926;2023-05-08T07:31:59;24.05;;;16.30;;
69188;SDS011;56302;52.322;5.926;2023-05-08T07:34:25;22.00;;;16.97;;
69188;SDS011;56302;52.322;5.926;2023-05-08T07:36:51;21.90;;;16.63;;
69188;SDS011;56302;52.322;5.926;2023-05-08T07:39:16;21.67;;;15.97;;
69188;SDS011;56302;52.322;5.926;2023-05-08T07:41:42;21.30;;;16.43;;
69188;SDS011;56302;52.322;5.926;2023-05-08T07:44:07;19.73;;;15.52;;
69188;SDS011;56302;52.322;5.926;2023-05-08T07:46:33;21.97;;;16.57;;
69188;SDS011;56302;52.322;5.926;2023-05-08T07:48:59;24.17;;;16.57;;
69188;SDS011;56302;52.322;5.926;2023-05-08T07:51:24;21.65;;;16.65;;
69188;SDS011;56302;52.322;5.926;2023-05-08T07:53:50;24.33;;;16.90;;
69188;SDS011;56302;52.322;5.926;2023-05-08T07:56:16;27.47;;;17.20;;
69188;SDS011;56302;52.322;5.926;2023-05-08T07:58:42;22.37;;;16.90;;
69188;SDS011;56302;52.322;5.926;2023-05-08T08:01:09;25.00;;;16.80;;
69188;SDS011;56302;52.322;5.926;2023-05-08T08:03:35;24.13;;;17.77;;
69188;SDS011;56302;52.322;5.926;2023-05-08T08:06:01;20.17;;;15.73;;
69188;SDS011;56302;52.322;5.926;2023-05-08T08:08:26;22.08;;;16.98;;
69188;SDS011;56302;52.322;5.926;2023-05-08T08:10:52;22.53;;;17.73;;
69188;SDS011;56302;52.322;5.926;2023-05-08T08:13:17;23.17;;;17.17;;
69188;SDS011;56302;52.322;5.926;2023-05-08T08:15:43;25.85;;;17.70;;
69188;SDS011;56302;52.322;5.926;2023-05-08T08:18:09;24.50;;;17.10;;
69188;SDS011;56302;52.322;5.926;2023-05-08T08:20:34;24.53;;;17.73;;
69188;SDS011;56302;52.322;5.926;2023-05-08T08:23:00;25.57;;;17.90;;
69188;SDS011;56302;52.322;5.926;2023-05-08T08:25:25;24.88;;;18.33;;
69188;SDS011;56302;52.322;5.926;2023-05-08T08:27:51;28.95;;;18.45;;
69188;SDS011;56302;52.322;5.926;2023-05-08T08:30:17;26.30;;;18.80;;
69188;SDS011;56302;52.322;5.926;2023-05-08T08:32:42;27.60;;;18.30;;
69188;SDS011;56302;52.322;5.926;2023-05-08T08:35:08;24.90;;;18.20;;
69188;SDS011;56302;52.322;5.926;2023-05-08T08:37:34;25.42;;;18.23;;
69188;SDS011;56302;52.322;5.926;2023-05-08T08:40:00;25.73;;;18.40;;
69188;SDS011;56302;52.322;5.926;2023-05-08T08:42:26;27.17;;;19.33;;
69188;SDS011;56302;52.322;5.926;2023-05-08T08:44:51;27.07;;;20.03;;
69188;SDS011;56302;52.322;5.926;2023-05-08T08:47:17;27.50;;;19.45;;
69188;SDS011;56302;52.322;5.926;2023-05-08T08:49:47;25.50;;;18.50;;
69188;SDS011;56302;52.322;5.926;2023-05-08T08:52:18;28.80;;;19.13;;
69188;SDS011;56302;52.322;5.926;2023-05-08T08:54:54;26.10;;;18.87;;
69188;SDS011;56302;52.322;5.926;2023-05-08T08:57:21;27.13;;;20.85;;
69188;SDS011;56302;52.322;5.926;2023-05-08T08:59:51;26.48;;;19.55;;
69188;SDS011;56302;52.322;5.926;2023-05-08T09:02:18;24.17;;;18.45;;
69188;SDS011;56302;52.322;5.926;2023-05-08T09:04:48;24.02;;;19.02;;
69188;SDS011;56302;52.322;5.926;2023-05-08T09:07:13;26.67;;;18.80;;
69188;SDS011;56302;52.322;5.926;2023-05-08T09:09:39;23.90;;;18.45;;
69188;SDS011;56302;52.322;5.926;2023-05-08T09:12:05;28.58;;;19.45;;
69188;SDS011;56302;52.322;5.926;2023-05-08T09:14:31;28.63;;;20.53;;
69188;SDS011;56302;52.322;5.926;2023-05-08T09:16:57;26.73;;;20.17;;
69188;SDS011;56302;52.322;5.926;2023-05-08T09:19:23;28.33;;;20.60;;
69188;SDS011;56302;52.322;5.926;2023-05-08T09:21:50;28.65;;;20.85;;
69188;SDS011;56302;52.322;5.926;2023-05-08T09:24:16;29.13;;;21.23;;
69188;SDS011;56302;52.322;5.926;2023-05-08T09:26:41;29.17;;;19.37;;
69188;SDS011;56302;52.322;5.926;2023-05-08T09:31:36;27.85;;;19.80;;
69188;SDS011;56302;52.322;5.926;2023-05-08T09:34:08;31.60;;;21.35;;
69188;SDS011;56302;52.322;5.926;2023-05-08T09:36:35;30.27;;;21.42;;
69188;SDS011;56302;52.322;5.926;2023-05-08T09:39:03;29.98;;;22.05;;
69188;SDS011;56302;52.322;5.926;2023-05-08T09:41:34;29.43;;;20.90;;
69188;SDS011;56302;52.322;5.926;2023-05-08T09:44:03;31.48;;;21.42;;
69188;SDS011;56302;52.322;5.926;2023-05-08T09:46:31;31.67;;;21.90;;
69188;SDS011;56302;52.322;5.926;2023-05-08T09:48:58;28.50;;;21.33;;
69188;SDS011;56302;52.322;5.926;2023-05-08T09:51:25;31.95;;;22.95;;
69188;SDS011;56302;52.322;5.926;2023-05-08T09:53:52;33.40;;;21.83;;
69188;SDS011;56302;52.322;5.926;2023-05-08T09:56:29;29.95;;;22.10;;
69188;SDS011;56302;52.322;5.926;2023-05-08T09:58:55;31.97;;;22.80;;
69188;SDS011;56302;52.322;5.926;2023-05-08T10:03:52;31.55;;;22.27;;
69188;SDS011;56302;52.322;5.926;2023-05-08T10:06:17;29.83;;;20.93;;
69188;SDS011;56302;52.322;5.926;2023-05-08T10:08:44;31.57;;;22.13;;
69188;SDS011;56302;52.322;5.926;2023-05-08T10:11:14;34.38;;;23.25;;
69188;SDS011;56302;52.322;5.926;2023-05-08T10:13:45;39.45;;;24.17;;
69188;SDS011;56302;52.322;5.926;2023-05-08T10:16:15;30.55;;;21.90;;
69188;SDS011;56302;52.322;5.926;2023-05-08T10:18:46;32.27;;;21.77;;
69188;SDS011;56302;52.322;5.926;2023-05-08T10:21:13;35.63;;;24.50;;
69188;SDS011;56302;52.322;5.926;2023-05-08T10:23:40;39.58;;;24.80;;
69188;SDS011;56302;52.322;5.926;2023-05-08T10:26:07;36.05;;;23.10;;
69188;SDS011;56302;52.322;5.926;2023-05-08T10:28:54;31.40;;;22.58;;
69188;SDS011;56302;52.322;5.926;2023-05-08T10:31:23;35.13;;;24.40;;
69188;SDS011;56302;52.322;5.926;2023-05-08T10:33:53;39.17;;;23.98;;
69188;SDS011;56302;52.322;5.926;2023-05-08T10:36:22;35.22;;;24.38;;
69188;SDS011;56302;52.322;5.926;2023-05-08T10:38:47;35.75;;;24.17;;
69188;SDS011;56302;52.322;5.926;2023-05-08T10:41:14;34.28;;;24.73;;
69188;SDS011;56302;52.322;5.926;2023-05-08T10:43:40;37.30;;;25.30;;
69188;SDS011;56302;52.322;5.926;2023-05-08T10:46:12;41.17;;;25.75;;
69188;SDS011;56302;52.322;5.926;2023-05-08T10:49:08;39.95;;;26.27;;
69188;SDS011;56302;52.322;5.926;2023-05-08T10:57:14;38.13;;;24.73;;
69188;SDS011;56302;52.322;5.926;2023-05-08T10:59:43;36.40;;;24.83;;
69188;SDS011;56302;52.322;5.926;2023-05-08T11:02:10;36.58;;;24.30;;
69188;SDS011;56302;52.322;5.926;2023-05-08T11:04:36;35.72;;;24.80;;
69188;SDS011;56302;52.322;5.926;2023-05-08T11:07:02;36.03;;;24.83;;
69188;SDS011;56302;52.322;5.926;2023-05-08T11:09:49;36.95;;;25.42;;
69188;SDS011;56302;52.322;5.926;2023-05-08T11:12:17;41.13;;;26.17;;
69188;SDS011;56302;52.322;5.926;2023-05-08T11:14:46;36.75;;;25.70;;
69188;SDS011;56302;52.322;5.926;2023-05-08T11:17:35;39.72;;;27.35;;
69188;SDS011;56302;52.322;5.926;2023-05-08T11:20:03;38.03;;;25.83;;
69188;SDS011;56302;52.322;5.926;2023-05-08T11:22:31;39.28;;;27.05;;
69188;SDS011;56302;52.322;5.926;2023-05-08T11:25:19;41.03;;;28.42;;
69188;SDS011;56302;52.322;5.926;2023-05-08T11:38:10;50.40;;;30.37;;
69188;SDS011;56302;52.322;5.926;2023-05-08T11:40:54;43.47;;;28.13;;
69188;SDS011;56302;52.322;5.926;2023-05-08T11:43:26;47.53;;;29.17;;
69188;SDS011;56302;52.322;5.926;2023-05-08T11:48:32;44.10;;;31.67;;
69188;SDS011;56302;52.322;5.926;2023-05-08T11:50:59;42.07;;;29.57;;
69188;SDS011;56302;52.322;5.926;2023-05-08T11:53:26;45.95;;;30.35;;
69188;SDS011;56302;52.322;5.926;2023-05-08T11:55:52;53.47;;;34.17;;
69188;SDS011;56302;52.322;5.926;2023-05-08T11:58:18;51.08;;;35.15;;
69188;SDS011;56302;52.322;5.926;2023-05-08T12:00:45;52.30;;;35.38;;
69188;SDS011;56302;52.322;5.926;2023-05-08T12:03:12;48.37;;;33.23;;
69188;SDS011;56302;52.322;5.926;2023-05-08T12:05:39;49.20;;;33.53;;
69188;SDS011;56302;52.322;5.926;2023-05-08T12:08:05;51.58;;;33.42;;
69188;SDS011;56302;52.322;5.926;2023-05-08T12:10:31;49.75;;;32.08;;
69188;SDS011;56302;52.322;5.926;2023-05-08T12:12:57;59.73;;;31.80;;
69188;SDS011;56302;52.322;5.926;2023-05-08T12:15:22;50.85;;;32.88;;
69188;SDS011;56302;52.322;5.926;2023-05-08T12:17:48;49.00;;;31.50;;
69188;SDS011;56302;52.322;5.926;2023-05-08T12:20:25;52.38;;;33.92;;
69188;SDS011;56302;52.322;5.926;2023-05-08T12:22:51;47.20;;;31.60;;
69188;SDS011;56302;52.322;5.926;2023-05-08T12:25:17;43.90;;;30.50;;
69188;SDS011;56302;52.322;5.926;2023-05-08T12:27:43;41.60;;;29.40;;
69188;SDS011;56302;52.322;5.926;2023-05-08T12:30:10;38.03;;;27.05;;
69188;SDS011;56302;52.322;5.926;2023-05-08T12:32:39;41.60;;;28.50;;
69188;SDS011;56302;52.322;5.926;2023-05-08T12:35:09;41.97;;;29.08;;
69188;SDS011;56302;52.322;5.926;2023-05-08T12:37:36;43.75;;;29.20;;
69188;SDS011;56302;52.322;5.926;2023-05-08T12:40:03;43.37;;;28.20;;
69188;SDS011;56302;52.322;5.926;2023-05-08T12:42:46;40.60;;;27.95;;
69188;SDS011;56302;52.322;5.926;2023-05-08T12:45:20;39.63;;;28.52;;
69188;SDS011;56302;52.322;5.926;2023-05-08T12:47:48;42.25;;;29.65;;
69188;SDS011;56302;52.322;5.926;2023-05-08T12:50:15;46.73;;;29.97;;
69188;SDS011;56302;52.322;5.926;2023-05-08T12:52:41;43.92;;;30.23;;
69188;SDS011;56302;52.322;5.926;2023-05-08T12:58:02;39.38;;;27.77;;
69188;SDS011;56302;52.322;5.926;2023-05-08T13:03:05;44.17;;;30.37;;
69188;SDS011;56302;52.322;5.926;2023-05-08T13:05:32;42.63;;;31.02;;
69188;SDS011;56302;52.322;5.926;2023-05-08T13:08:05;40.33;;;30.35;;
69188;SDS011;56302;52.322;5.926;2023-05-08T13:13:10;42.45;;;30.45;;
69188;SDS011;56302;52.322;5.926;2023-05-08T13:15:37;45.47;;;31.00;;
69188;SDS011;56302;52.322;5.926;2023-05-08T13:18:02;48.53;;;32.38;;
69188;SDS011;56302;52.322;5.926;2023-05-08T13:20:28;46.90;;;32.07;;
69188;SDS011;56302;52.322;5.926;2023-05-08T13:22:54;48.15;;;31.90;;
69188;SDS011;56302;52.322;5.926;2023-05-08T13:25:19;49.53;;;32.73;;
69188;SDS011;56302;52.322;5.926;2023-05-08T13:27:45;44.60;;;31.23;;
69188;SDS011;56302;52.322;5.926;2023-05-08T13:30:10;43.30;;;31.35;;
69188;SDS011;56302;52.322;5.926;2023-05-08T13:32:37;47.03;;;32.72;;
69188;SDS011;56302;52.322;5.926;2023-05-08T13:35:02;46.57;;;32.77;;
69188;SDS011;56302;52.322;5.926;2023-05-08T13:37:28;45.83;;;29.65;;
69188;SDS011;56302;52.322;5.926;2023-05-08T13:39:54;39.50;;;29.93;;
69188;SDS011;56302;52.322;5.926;2023-05-08T13:42:20;43.25;;;29.90;;
69188;SDS011;56302;52.322;5.926;2023-05-08T13:44:45;42.03;;;29.10;;
69188;SDS011;56302;52.322;5.926;2023-05-08T13:47:11;41.87;;;29.43;;
69188;SDS011;56302;52.322;5.926;2023-05-08T13:49:36;43.10;;;30.42;;
69188;SDS011;56302;52.322;5.926;2023-05-08T13:52:02;42.83;;;30.27;;
69188;SDS011;56302;52.322;5.926;2023-05-08T13:54:27;44.20;;;31.43;;
69188;SDS011;56302;52.322;5.926;2023-05-08T13:56:53;44.28;;;31.23;;
69188;SDS011;56302;52.322;5.926;2023-05-08T13:59:19;42.37;;;30.13;;
69188;SDS011;56302;52.322;5.926;2023-05-08T14:01:44;43.15;;;31.60;;
69188;SDS011;56302;52.322;5.926;2023-05-08T14:04:10;50.23;;;34.03;;
69188;SDS011;56302;52.322;5.926;2023-05-08T14:06:35;51.93;;;34.87;;
69188;SDS011;56302;52.322;5.926;2023-05-08T14:09:01;44.40;;;31.40;;
69188;SDS011;56302;52.322;5.926;2023-05-08T14:11:26;44.22;;;30.95;;
69188;SDS011;56302;52.322;5.926;2023-05-08T14:13:53;45.50;;;31.40;;
69188;SDS011;56302;52.322;5.926;2023-05-08T14:16:19;42.43;;;30.27;;
69188;SDS011;56302;52.322;5.926;2023-05-08T14:18:45;41.53;;;29.85;;
69188;SDS011;56302;52.322;5.926;2023-05-08T14:21:10;48.03;;;32.33;;
69188;SDS011;56302;52.322;5.926;2023-05-08T14:23:36;42.73;;;30.77;;
69188;SDS011;56302;52.322;5.926;2023-05-08T14:26:02;41.33;;;31.05;;
69188;SDS011;56302;52.322;5.926;2023-05-08T14:28:28;42.30;;;32.38;;
69188;SDS011;56302;52.322;5.926;2023-05-08T14:30:54;46.73;;;31.67;;
69188;SDS011;56302;52.322;5.926;2023-05-08T14:33:20;46.90;;;33.50;;
69188;SDS011;56302;52.322;5.926;2023-05-08T14:35:45;43.20;;;31.30;;
69188;SDS011;56302;52.322;5.926;2023-05-08T14:38:12;43.90;;;32.17;;
69188;SDS011;56302;52.322;5.926;2023-05-08T14:40:38;43.97;;;32.80;;
69188;SDS011;56302;52.322;5.926;2023-05-08T14:43:03;42.37;;;31.07;;
69188;SDS011;56302;52.322;5.926;2023-05-08T14:45:29;41.83;;;32.30;;
69188;SDS011;56302;52.322;5.926;2023-05-08T14:47:55;43.70;;;31.35;;
69188;SDS011;56302;52.322;5.926;2023-05-08T14:50:21;47.40;;;31.67;;
69188;SDS011;56302;52.322;5.926;2023-05-08T14:52:48;45.47;;;30.45;;
69188;SDS011;56302;52.322;5.926;2023-05-08T14:55:14;45.25;;;31.83;;
69188;SDS011;56302;52.322;5.926;2023-05-08T14:57:44;39.60;;;29.30;;
69188;SDS011;56302;52.322;5.926;2023-05-08T15:00:14;41.60;;;30.55;;
69188;SDS011;56302;52.322;5.926;2023-05-08T15:02:40;42.35;;;30.30;;
69188;SDS011;56302;52.322;5.926;2023-05-08T15:05:06;39.30;;;29.73;;
69188;SDS011;56302;52.322;5.926;2023-05-08T15:07:32;40.00;;;30.17;;
69188;SDS011;56302;52.322;5.926;2023-05-08T15:09:58;42.13;;;29.70;;
69188;SDS011;56302;52.322;5.926;2023-05-08T15:12:24;40.58;;;30.25;;
69188;SDS011;56302;52.322;5.926;2023-05-08T15:14:49;41.97;;;29.40;;
69188;SDS011;56302;52.322;5.926;2023-05-08T15:17:15;41.10;;;30.40;;
69188;SDS011;56302;52.322;5.926;2023-05-08T15:19:41;36.63;;;27.70;;